Home > Products > Valid Products > TAF

000
FTUS44 KFWD 021142
TAFACT
TAF
KACT 021142Z 0212/0312 34008KT 3SM -DZ BR OVC004
     FM021600 01010KT 5SM BR VCSH OVC007
     FM030200 VRB03KT 2SM BR OVC005
     FM030600 15009KT 2SM BR VCSH OVC008=



000
FTUS44 KFWD 021142
TAFDFW
TAF
KDFW 021142Z 0212/0318 01010KT 5SM BR OVC008
      TEMPO 0213/0216 2SM -DZ BR
     FM030500 12005KT 2SM BR OVC005
     FM031100 18012KT 5SM BR OVC009=



000
FTUS44 KFWD 021142
TAFFTW
TAF
KFTW 021142Z 0212/0312 01010KT 5SM BR OVC007
      TEMPO 0213/0216 2SM -DZ BR
     FM030500 12005KT 2SM BR OVC005
     FM031100 18012KT 5SM BR OVC009=



000
FTUS44 KFWD 020908 AAA
TAFFTW
TAF AMD
KFTW 020908Z 0209/0306 01010KT 3SM -DZ BR OVC006
      TEMPO 0211/0215 1SM -DZ BR OVC003
     FM021600 36008KT 5SM BR OVC008
     FM030200 12005KT 2SM BR OVC005=



000
FTUS44 KFWD 020908 AAA
TAFDFW
TAF AMD
KDFW 020908Z 0209/0312 01010KT 3SM -DZ BR OVC006
      TEMPO 0211/0215 2SM -DZ BR OVC004
     FM021600 36008KT 5SM BR OVC008
     FM030200 12005KT 2SM BR OVC005=



000
FTUS44 KFWD 020908 AAA
TAFACT
TAF AMD
KACT 020908Z 0209/0306 34008KT 3SM BR OVC005
      TEMPO 0210/0214 1SM -DZ BR OVC003
     FM021600 01010KT 5SM BR OVC007
     FM030200 VRB03KT 2SM BR OVC005=



000
FTUS44 KFWD 020520
TAFACT
TAF
KACT 020520Z 0206/0306 34008KT 3SM BR OVC005
      TEMPO 0208/0212 1SM -DZ OVC003
     FM021600 01010KT 5SM BR OVC007
     FM030200 VRB03KT 2SM BR OVC005=



000
FTUS44 KFWD 020520
TAFDFW
TAF
KDFW 020520Z 0206/0312 36011KT P6SM VCSH BKN012 OVC017
      TEMPO 0206/0208 5SM -RA BKN009
     FM020800 01009KT 3SM -DZ BR OVC006
     FM021600 36008KT 5SM BR OVC008
     FM030200 12005KT 2SM BR OVC005=



000
FTUS44 KFWD 020520
TAFFTW
TAF
KFTW 020520Z 0206/0306 36011KT P6SM VCSH BKN012 OVC017
      TEMPO 0206/0208 5SM -RA BKN009
     FM020800 01009KT 3SM -DZ BR OVC006
     FM021600 36008KT 5SM BR OVC008
     FM030200 12005KT 2SM BR OVC005=



000
FTUS44 KFWD 020520
TAFFTW
TAF
KFTW 020520Z 0206/0306 36011KT P6SM VCSH BKN012 OVC017
      TEMPO 0206/0208 5SM -RA BKN009
     FM020800 01009KT 3SM -DZ BR OVC006
     FM021600 36008KT 5SM BR OVC008
     FM030200 12005KT 2SM BR OVC005=



000
FTUS44 KFWD 020520
TAFDFW
TAF
KDFW 020520Z 0206/0312 36011KT P6SM VCSH BKN012 OVC017
      TEMPO 0206/0208 5SM -RA BKN009
     FM020800 01009KT 3SM -DZ BR OVC006
     FM021600 36008KT 5SM BR OVC008
     FM030200 12005KT 2SM BR OVC005=



000
FTUS44 KFWD 020520
TAFACT
TAF
KACT 020520Z 0206/0306 34008KT 3SM BR OVC005
      TEMPO 0208/0212 1SM -DZ OVC003
     FM021600 01010KT 5SM BR OVC007
     FM030200 VRB03KT 2SM BR OVC005=



000
FTUS44 KFWD 020403 AAB
TAFACT
TAF AMD
KACT 020403Z 0204/0224 36009KT 3SM BR OVC004
      TEMPO 0208/0212 1SM -DZ OVC003
     FM021800 01008KT 1SM BR OVC006=



000
FTUS44 KFWD 020403 AAC
TAFDFW
TAF AMD
KDFW 020403Z 0204/0306 36010KT P6SM -RA SCT009 OVC015
      TEMPO 0204/0206 BKN009
     FM020600 01010KT 5SM -RA BR OVC007
     FM020700 01009KT 3SM -DZ BR OVC004
     FM021800 36008KT 5SM BR OVC007=



000
FTUS44 KFWD 020403 AAB
TAFFTW
TAF AMD
KFTW 020403Z 0204/0224 36010KT P6SM -RA SCT009 OVC015
      TEMPO 0204/0206 BKN009
     FM020600 01010KT 5SM -RA BR OVC007
     FM020700 01009KT 3SM -DZ BR OVC004
     FM021800 36008KT 5SM BR OVC007=



000
FTUS44 KFWD 020254 CCB
TAFFTW
TAF COR
KFTW 020254Z 0203/0224 35006KT P6SM OVC009
      TEMPO 0205/0207 5SM -DZ BR OVC006
     FM020700 01009KT 3SM -DZ BR OVC004
     FM021800 36008KT 5SM BR OVC007=



000
FTUS44 KFWD 020251 AAB
TAFDFW
TAF AMD
KDFW 020251Z 0203/0306 36008KT P6SM OVC010
      TEMPO 0203/0205 SCT009 OVC015
     FM020500 01010KT 5SM -RA BR OVC007
     FM020700 01009KT 3SM -DZ BR OVC004
     FM021800 36008KT 5SM BR OVC007=



000
FTUS44 KFWD 020251 AAA
TAFACT
TAF AMD
KACT 020251Z 0203/0224 36012KT 5SM -RA BR OVC006
     FM020400 35010KT 3SM -RA BR OVC005
      TEMPO 0208/0212 1SM -DZ OVC003
     FM021800 01008KT 1SM BR OVC006=



000
FTUS44 KFWD 020251 AAA
TAFFTW
TAF AMD
KFTW 020251Z 0203/0224 01010KT 5SM -RA BR OVC006
     FM020700 01009KT 3SM -DZ BR OVC004
     FM021800 36008KT 5SM BR OVC007=



000
FTUS44 KFWD 020211 AAA
TAFDFW
TAF AMD
KDFW 020211Z 0202/0306 36008KT P6SM OVC010
      TEMPO 0202/0205 SCT009 OVC015
     FM020500 01010KT 5SM -RA BR OVC007
     FM020700 01009KT 3SM -DZ BR OVC004
     FM021800 36008KT 5SM BR OVC007=



000
FTUS44 KFWD 020211 AAA
TAFDFW
TAF AMD
KDFW 020211Z 0202/0306 36008KT P6SM OVC010
      TEMPO 0202/0205 SCT009 OVC015
     FM020500 01010KT 5SM -RA BR OVC007
     FM020700 01009KT 3SM -DZ BR OVC004
     FM021800 36008KT 5SM BR OVC007=



000
FTUS44 KFWD 012355 CCA
TAFFTW
TAF COR
KFTW 012355Z 0200/0306 36011KT P6SM OVC008
     FM020300 01010KT 5SM -RA BR OVC006
     FM020700 01009KT 3SM -DZ BR OVC004
     FM021800 36008KT 5SM BR OVC007=



000
FTUS44 KFWD 012355 CCA
TAFDFW
TAF COR
KDFW 012355Z 0200/0306 36011KT P6SM OVC008
     FM020300 01010KT 5SM -RA BR OVC006
     FM020700 01009KT 3SM -DZ BR OVC004
     FM021800 36008KT 5SM BR OVC007=



000
FTUS44 KFWD 012355 CCA
TAFFTW
TAF COR
KFTW 012355Z 0200/0306 36011KT P6SM OVC008
     FM020300 01010KT 5SM -RA BR OVC006
     FM020700 01009KT 3SM -DZ BR OVC004
     FM021800 36008KT 5SM BR OVC007=



000
FTUS44 KFWD 012355 CCA
TAFDFW
TAF COR
KDFW 012355Z 0200/0306 36011KT P6SM OVC008
     FM020300 01010KT 5SM -RA BR OVC006
     FM020700 01009KT 3SM -DZ BR OVC004
     FM021800 36008KT 5SM BR OVC007=



000
FTUS44 KFWD 012339
TAFACT
TAF
KACT 012339Z 0200/0224 36011KT 6SM BR OVC007
     FM020100 36012KT 5SM -RA BR OVC006
     FM020400 35010KT 3SM -RA BR OVC005
      TEMPO 0208/0212 1SM -DZ OVC003
     FM021800 01008KT 1SM BR OVC006=



000
FTUS44 KFWD 012339
TAFACT
TAF
KACT 012339Z 0200/0224 36011KT 6SM BR OVC007
     FM020100 36012KT 5SM -RA BR OVC006
     FM020400 35010KT 3SM -RA BR OVC005
      TEMPO 0208/0212 1SM -DZ OVC003
     FM021800 01008KT 1SM BR OVC006=



000
FTUS44 KFWD 012339
TAFDFW
TAF
KDFW 012339Z 0200/0306 36011KT P6SM OVC008
     FM020300 01010KT 5SM -RA BR VCSH OVC006
     FM020700 01009KT 3SM -DZ BR OVC004
     FM021800 36008KT 5SM BR OVC007=



000
FTUS44 KFWD 012339
TAFFTW
TAF
KFTW 012339Z 0200/0224 36011KT P6SM OVC008
     FM020300 01010KT 5SM -RA BR VCSH OVC006
     FM020700 01009KT 3SM -DZ BR OVC004
     FM021800 36008KT 5SM BR OVC007=



000
FTUS44 KFWD 012339
TAFDFW
TAF
KDFW 012339Z 0200/0306 36011KT P6SM OVC008
     FM020300 01010KT 5SM -RA BR VCSH OVC006
     FM020700 01009KT 3SM -DZ BR OVC004
     FM021800 36008KT 5SM BR OVC007=



000
FTUS44 KFWD 012339
TAFFTW
TAF
KFTW 012339Z 0200/0224 36011KT P6SM OVC008
     FM020300 01010KT 5SM -RA BR VCSH OVC006
     FM020700 01009KT 3SM -DZ BR OVC004
     FM021800 36008KT 5SM BR OVC007=



000
FTUS44 KFWD 012102 CCA
TAFACT
TAF COR
KACT 012102Z 0121/0218 36012KT 6SM BR OVC005
     FM020200 01012KT 5SM -RA BR OVC006
     FM021200 01009KT 3SM BR OVC005
     FM021600 01007KT 1SM BR OVC003=



000
FTUS44 KFWD 012101 AAD
TAFDFW
TAF AMD
KDFW 012101Z 0121/0224 34012KT P6SM OVC006
      TEMPO 0121/0124 5SM BR OVC005
     FM020300 01010KT 6SM BR VCSH OVC006
     FM021300 01008KT 4SM BR OVC004
     FM021700 36008KT 1SM BR OVC004=



000
FTUS44 KFWD 012101 AAB
TAFFTW
TAF AMD
KFTW 012101Z 0121/0218 35012KT 6SM BR OVC006
     FM020300 01010KT P6SM VCSH OVC006
     FM021300 01008KT 3SM BR OVC004
     FM021700 36008KT 2SM BR OVC004=



000
FTUS44 KFWD 012101 AAB
TAFFTW
TAF AMD
KFTW 012101Z 0121/0218 35012KT 6SM BR OVC006
     FM020300 01010KT P6SM VCSH OVC006
     FM021300 01008KT 3SM BR OVC004
     FM021700 36008KT 2SM BR OVC004=



000
FTUS44 KFWD 012101 AAB
TAFACT
TAF AMD
KACT 012101Z 0121/0218 36009KT 4SM BR OVC005
     FM020200 01012KT 5SM -RA BR OVC006
     FM021200 01009KT 3SM BR OVC005
     FM021600 01007KT 1SM BR OVC003=



000
FTUS44 KFWD 012101 AAD
TAFDFW
TAF AMD
KDFW 012101Z 0121/0224 34012KT P6SM OVC006
      TEMPO 0121/0124 5SM BR OVC005
     FM020300 01010KT 6SM BR VCSH OVC006
     FM021300 01008KT 4SM BR OVC004
     FM021700 36008KT 1SM BR OVC004=



000
FTUS44 KFWD 012101 AAB
TAFACT
TAF AMD
KACT 012101Z 0121/0218 36009KT 4SM BR OVC005
     FM020200 01012KT 5SM -RA BR OVC006
     FM021200 01009KT 3SM BR OVC005
     FM021600 01007KT 1SM BR OVC003=



000
FTUS44 KFWD 012020 AAC
TAFDFW
TAF AMD
KDFW 012020Z 0120/0224 34010KT 6SM BR OVC006
      TEMPO 0120/0122 5SM BR OVC005
     FM012200 35006KT 5SM BR OVC006
     FM020300 01010KT P6SM VCSH OVC006
     FM021300 01008KT 2SM BR OVC004=



000
FTUS44 KFWD 011946 AAA
TAFFTW
TAF AMD
KFTW 011946Z 0120/0218 35010KT 5SM BR OVC005
      TEMPO 0120/0122 3SM -DZ BR OVC004
     FM012200 35006KT 5SM BR OVC005
     FM020300 01010KT P6SM VCSH OVC006
     FM021300 01008KT 2SM BR OVC004=



000
FTUS44 KFWD 011944 AAB
TAFDFW
TAF AMD
KDFW 011944Z 0120/0224 34010KT 5SM BR OVC005
      TEMPO 0120/0122 3SM -RA BR OVC004
     FM012200 35006KT 5SM BR OVC005
     FM020300 01010KT P6SM VCSH OVC006
     FM021300 01008KT 2SM BR OVC004=



000
FTUS44 KFWD 011939 AAA
TAFACT
TAF AMD
KACT 011939Z 0120/0218 36009KT 4SM BR OVC005
     FM020200 01007KT 5SM -RA BR OVC005
     FM021400 01007KT 2SM BR OVC003=



000
FTUS44 KFWD 011836 AAA
TAFDFW
TAF AMD
KDFW 011836Z 0119/0224 36008KT 3SM -DZ BR OVC005
      TEMPO 0119/0121 1SM -DZ BR OVC003
     FM012100 01006KT 3SM -DZ BR OVC005
     FM020300 01010KT P6SM VCSH OVC006
     FM021300 01008KT 2SM BR OVC004
     FM022100 04007KT 3SM -DZ BR OVC003=



000
FTUS44 KFWD 011735
TAFACT
TAF
KACT 011735Z 0118/0218 36009KT 3SM BR OVC005
      TEMPO 0118/0121 1 1/2SM BR OVC004
     FM012200 01007KT 4SM -RA BR OVC005
     FM021400 01007KT 2SM BR OVC003=



000
FTUS44 KFWD 011735
TAFFTW
TAF
KFTW 011735Z 0118/0218 36008KT 3SM -DZ BR OVC004
      TEMPO 0118/0121 1SM -DZ BR OVC003
     FM012100 01006KT 3SM -DZ BR OVC005
     FM020300 01010KT P6SM VCSH OVC006
     FM021300 01008KT 2SM BR OVC004=



000
FTUS44 KFWD 011735
TAFACT
TAF
KACT 011735Z 0118/0218 36009KT 3SM BR OVC005
      TEMPO 0118/0121 1 1/2SM BR OVC004
     FM012200 01007KT 4SM -RA BR OVC005
     FM021400 01007KT 2SM BR OVC003=



000
FTUS44 KFWD 011735
TAFFTW
TAF
KFTW 011735Z 0118/0218 36008KT 3SM -DZ BR OVC004
      TEMPO 0118/0121 1SM -DZ BR OVC003
     FM012100 01006KT 3SM -DZ BR OVC005
     FM020300 01010KT P6SM VCSH OVC006
     FM021300 01008KT 2SM BR OVC004=



000
FTUS44 KFWD 011735
TAFDFW
TAF
KDFW 011735Z 0118/0224 36008KT 3SM -DZ BR OVC004
      TEMPO 0118/0121 1SM -DZ BR OVC003
     FM012100 01006KT 3SM -DZ BR OVC005
     FM020300 01010KT P6SM VCSH OVC006
     FM021300 01008KT 2SM BR OVC004
     FM022100 04007KT 3SM -DZ BR OVC003=



000
FTUS44 KFWD 011735
TAFDFW
TAF
KDFW 011735Z 0118/0224 36008KT 3SM -DZ BR OVC004
      TEMPO 0118/0121 1SM -DZ BR OVC003
     FM012100 01006KT 3SM -DZ BR OVC005
     FM020300 01010KT P6SM VCSH OVC006
     FM021300 01008KT 2SM BR OVC004
     FM022100 04007KT 3SM -DZ BR OVC003=



000
FTUS44 KFWD 011502 AAA
TAFACT
TAF AMD
KACT 011502Z 0115/0212 36010KT 3SM -DZ BR OVC003
      TEMPO 0115/0117 2SM -DZ BR
     FM011700 36009KT 4SM -DZ BR OVC005
     FM012000 01007KT 5SM -RA BR OVC007=



000
FTUS44 KFWD 011502 AAA
TAFDFW
TAF AMD
KDFW 011502Z 0115/0218 36008KT 3SM -DZ BR OVC003
      TEMPO 0115/0118 1SM -DZ BR
     FM012100 01006KT 3SM -DZ BR OVC006
     FM020400 02010KT P6SM VCSH OVC007=



000
FTUS44 KFWD 011502 AAA
TAFFTW
TAF AMD
KFTW 011502Z 0115/0212 36007KT 3SM -DZ BR OVC003
      TEMPO 0115/0118 1SM -DZ BR
     FM012100 01006KT 3SM -DZ BR OVC006
     FM020300 02010KT 5SM BR VCSH OVC007
     FM020400 02010KT P6SM VCSH OVC007=



000
FTUS44 KFWD 011502 AAA
TAFDFW
TAF AMD
KDFW 011502Z 0115/0218 36008KT 3SM -DZ BR OVC003
      TEMPO 0115/0118 1SM -DZ BR
     FM012100 01006KT 3SM -DZ BR OVC006
     FM020400 02010KT P6SM VCSH OVC007=



000
FTUS44 KFWD 011502 AAA
TAFFTW
TAF AMD
KFTW 011502Z 0115/0212 36007KT 3SM -DZ BR OVC003
      TEMPO 0115/0118 1SM -DZ BR
     FM012100 01006KT 3SM -DZ BR OVC006
     FM020300 02010KT 5SM BR VCSH OVC007
     FM020400 02010KT P6SM VCSH OVC007=



000
FTUS44 KFWD 011502 AAA
TAFACT
TAF AMD
KACT 011502Z 0115/0212 36010KT 3SM -DZ BR OVC003
      TEMPO 0115/0117 2SM -DZ BR
     FM011700 36009KT 4SM -DZ BR OVC005
     FM012000 01007KT 5SM -RA BR OVC007=



000
FTUS44 KFWD 011202 CCA
TAFDFW
TAF COR
KDFW 011202Z 0112/0218 04004KT 3SM -DZ BR OVC003
      TEMPO 0112/0115 1SM -FZDZ BR
     FM012100 01006KT 3SM -DZ BR OVC006
     FM020400 02010KT P6SM VCSH OVC007=



000
FTUS44 KFWD 011140
TAFDFW
TAF
KDFW 011140Z 0112/0218 04004KT 3SM -DZ BR OVC003
      TEMPO 0112/0115 1SM -FZDZ BR
     FM012100 01006KT 3SM -DZ BR OVC006
     FM020300 02010KT 5SM BR VCSH OVC007
     FM020400 02010KT P6SM VCSH OVC007=



000
FTUS44 KFWD 011140
TAFACT
TAF
KACT 011140Z 0112/0212 36006KT 2SM -DZ BR OVC003
     FM011700 36009KT 4SM -DZ BR OVC005
     FM012000 01007KT 5SM -RA BR OVC007=



000
FTUS44 KFWD 011140
TAFFTW
TAF
KFTW 011140Z 0112/0212 04004KT 3SM -DZ BR OVC003
      TEMPO 0112/0116 1SM -DZ BR
     FM012100 01006KT 3SM -DZ BR OVC006
     FM020300 02010KT 5SM BR VCSH OVC007
     FM020400 02010KT P6SM VCSH OVC007=



000
FTUS44 KFWD 010850 AAA
TAFFTW
TAF AMD
KFTW 010850Z 0109/0206 04004KT 5SM BR BKN006 OVC015
      TEMPO 0110/0114 2SM -DZ BR OVC004
     FM012100 01006KT 5SM BR VCSH OVC008=



000
FTUS44 KFWD 010850 AAA
TAFACT
TAF AMD
KACT 010850Z 0109/0206 01008KT 3SM -DZ BR OVC005
     FM011200 02005KT 1SM -DZ BR OVC003
     FM011700 36009KT 4SM -DZ BR OVC005
     FM012000 01007KT 5SM -RA BR OVC007=



000
FTUS44 KFWD 010850 AAA
TAFDFW
TAF AMD
KDFW 010850Z 0109/0212 04004KT 5SM BR BKN005 OVC020
      TEMPO 0110/0114 2SM -DZ BR OVC004
     FM012100 01006KT 5SM BR VCSH OVC008=



000
FTUS44 KFWD 010528
TAFACT
TAF
KACT 010528Z 0106/0206 01008KT 3SM -DZ BR OVC005
     FM010900 02005KT 1SM -DZ BR OVC003
     FM011700 36009KT 4SM -DZ BR OVC005
     FM012000 01007KT 5SM -RA BR OVC007=



000
FTUS44 KFWD 010528
TAFFTW
TAF
KFTW 010528Z 0106/0206 05005KT 5SM BR BKN006 OVC020
      TEMPO 0106/0108 2SM -FZDZ BR BKN004
     FM010800 04004KT 2SM -DZ BR OVC005
     FM012100 01006KT 5SM BR VCSH OVC008=



000
FTUS44 KFWD 010528
TAFDFW
TAF
KDFW 010528Z 0106/0212 05005KT 5SM BR BKN007 OVC020
      TEMPO 0106/0108 2SM -FZDZ BR BKN004
     FM010800 04004KT 2SM -DZ BR OVC005
     FM012100 01006KT 5SM BR VCSH OVC008=



000
FTUS44 KFWD 010255 AAA
TAFACT
TAF AMD
KACT 010255Z 0103/0124 01008KT 5SM -RA BR OVC007
      TEMPO 0103/0104 3SM -RA OVC005
     FM010500 02006KT 5SM -DZ BR OVC005
     FM010900 03006KT 3SM BR OVC005
      TEMPO 0109/0112 1SM -DZ BR OVC003
     FM012000 01007KT 5SM -RA BR OVC007=



000
FTUS44 KFWD 010255 AAB
TAFFTW
TAF AMD
KFTW 010255Z 0103/0124 03006KT 4SM -FZDZ BR OVC006
      TEMPO 0103/0106 2SM -FZDZ BR OVC003
     FM010600 04004KT 2SM -DZ BR OVC004
     FM012000 03006KT 5SM -RA BR OVC007=



000
FTUS44 KFWD 010255 AAB
TAFDFW
TAF AMD
KDFW 010255Z 0103/0206 03006KT 4SM -FZDZ BR OVC006
      TEMPO 0103/0106 2SM -FZDZ BR OVC003
     FM010600 04004KT 2SM -DZ BR OVC004
     FM012000 03006KT 5SM -RA BR OVC007=



000
FTUS44 KFWD 010255 AAA
TAFACT
TAF AMD
KACT 010255Z 0103/0124 01008KT 5SM -RA BR OVC007
      TEMPO 0103/0104 3SM -RA OVC005
     FM010500 02006KT 5SM -DZ BR OVC005
     FM010900 03006KT 3SM BR OVC005
      TEMPO 0109/0112 1SM -DZ BR OVC003
     FM012000 01007KT 5SM -RA BR OVC007=



000
FTUS44 KFWD 010255 AAB
TAFFTW
TAF AMD
KFTW 010255Z 0103/0124 03006KT 4SM -FZDZ BR OVC006
      TEMPO 0103/0106 2SM -FZDZ BR OVC003
     FM010600 04004KT 2SM -DZ BR OVC004
     FM012000 03006KT 5SM -RA BR OVC007=



000
FTUS44 KFWD 010255 AAB
TAFDFW
TAF AMD
KDFW 010255Z 0103/0206 03006KT 4SM -FZDZ BR OVC006
      TEMPO 0103/0106 2SM -FZDZ BR OVC003
     FM010600 04004KT 2SM -DZ BR OVC004
     FM012000 03006KT 5SM -RA BR OVC007=



000
FTUS44 KFWD 010206 AAA
TAFDFW
TAF AMD
KDFW 010206Z 0102/0206 03006KT 4SM -FZDZ BR OVC006
      TEMPO 0102/0105 2SM -FZDZ BR OVC003
     FM010500 04004KT 2SM -DZ BR OVC004
     FM012000 03006KT 5SM -RA BR OVC007=



000
FTUS44 KFWD 010206 AAA
TAFFTW
TAF AMD
KFTW 010206Z 0102/0124 03006KT 4SM -FZDZ BR OVC006
      TEMPO 0102/0105 2SM -FZDZ BR OVC003
     FM010500 04004KT 2SM -DZ BR OVC004
     FM012000 03006KT 5SM -RA BR OVC007=



000
FTUS44 KFWD 282334
TAFFTW
TAF
KFTW 282334Z 0100/0124 02006KT 3SM -FZRA BR SCT005 OVC007
      TEMPO 0100/0102 1SM -FZDZ BR BKN005
     FM010200 04006KT 4SM -DZ BR OVC005
     FM010500 04004KT 2SM -DZ BR OVC004
     FM012000 03006KT 5SM -RA BR OVC007=



000
FTUS44 KFWD 282334
TAFACT
TAF
KACT 282334Z 0100/0124 01008KT 5SM -RA BR OVC007
      TEMPO 0101/0104 3SM -RA OVC005
     FM010500 02006KT 5SM -DZ BR OVC005
     FM010900 03006KT 3SM BR OVC005
      TEMPO 0109/0112 1SM -DZ BR OVC003
     FM012000 01007KT 5SM -RA BR OVC007=



000
FTUS44 KFWD 282334
TAFDFW
TAF
KDFW 282334Z 0100/0206 03006KT 4SM -FZRA BR SCT006 OVC009
      TEMPO 0100/0102 3SM -FZDZ BR BKN006
     FM010200 04006KT 4SM -DZ BR OVC005
     FM010500 04004KT 2SM -DZ BR OVC004
     FM012000 03006KT 5SM -RA BR OVC007=



000
FTUS44 KFWD 282334
TAFFTW
TAF
KFTW 282334Z 0100/0124 02006KT 3SM -FZRA BR SCT005 OVC007
      TEMPO 0100/0102 1SM -FZDZ BR BKN005
     FM010200 04006KT 4SM -DZ BR OVC005
     FM010500 04004KT 2SM -DZ BR OVC004
     FM012000 03006KT 5SM -RA BR OVC007=



000
FTUS44 KFWD 282334
TAFACT
TAF
KACT 282334Z 0100/0124 01008KT 5SM -RA BR OVC007
      TEMPO 0101/0104 3SM -RA OVC005
     FM010500 02006KT 5SM -DZ BR OVC005
     FM010900 03006KT 3SM BR OVC005
      TEMPO 0109/0112 1SM -DZ BR OVC003
     FM012000 01007KT 5SM -RA BR OVC007=



000
FTUS44 KFWD 282334
TAFDFW
TAF
KDFW 282334Z 0100/0206 03006KT 4SM -FZRA BR SCT006 OVC009
      TEMPO 0100/0102 3SM -FZDZ BR BKN006
     FM010200 04006KT 4SM -DZ BR OVC005
     FM010500 04004KT 2SM -DZ BR OVC004
     FM012000 03006KT 5SM -RA BR OVC007=



000
FTUS44 KFWD 282302 AAC
TAFDFW
TAF AMD
KDFW 282302Z 2823/0124 03005KT 4SM -FZRA BR SCT008 OVC010
      TEMPO 2823/0101 2SM -FZDZ BR BKN008
     FM010300 06005KT 2SM -DZ BR OVC006
      TEMPO 0111/0114 3SM BR SCT003 OVC006
     FM011800 03006KT 3SM -RA BR OVC004=



000
FTUS44 KFWD 282302 AAC
TAFDFW
TAF AMD
KDFW 282302Z 2823/0124 03005KT 4SM -FZRA BR SCT008 OVC010
      TEMPO 2823/0101 2SM -FZDZ BR BKN008
     FM010300 06005KT 2SM -DZ BR OVC006
      TEMPO 0111/0114 3SM BR SCT003 OVC006
     FM011800 03006KT 3SM -RA BR OVC004=



000
FTUS44 KFWD 282204 AAB
TAFACT
TAF AMD
KACT 282204Z 2822/0118 01006KT P6SM OVC009
      TEMPO 2822/2824 5SM -RA BR OVC007
     FM010300 03006KT 5SM -DZ BR OVC004
     FM010900 05006KT 2SM BR OVC003
      TEMPO 0116/0118 4SM BR OVC004=



000
FTUS44 KFWD 282204 AAB
TAFDFW
TAF AMD
KDFW 282204Z 2822/0124 03005KT 6SM BR SCT008 OVC012
      TEMPO 2822/2823 3SM -FZDZ BR BKN008
     FM010300 06005KT 2SM -DZ BR OVC003
      TEMPO 0111/0114 3SM BR SCT003 OVC006
     FM011800 03006KT 3SM -RA BR OVC004=



000
FTUS44 KFWD 282204 AAA
TAFFTW
TAF AMD
KFTW 282204Z 2822/0118 03005KT 6SM BR SCT008 OVC012
      TEMPO 2822/2824 2SM -FZDZ BR BKN008
     FM010300 06005KT 2SM -DZ BR OVC003
      TEMPO 0111/0114 3SM BR SCT003 OVC006=



000
FTUS44 KFWD 282204 AAA
TAFFTW
TAF AMD
KFTW 282204Z 2822/0118 03005KT 6SM BR SCT008 OVC012
      TEMPO 2822/2824 2SM -FZDZ BR BKN008
     FM010300 06005KT 2SM -DZ BR OVC003
      TEMPO 0111/0114 3SM BR SCT003 OVC006=



000
FTUS44 KFWD 282204 AAB
TAFACT
TAF AMD
KACT 282204Z 2822/0118 01006KT P6SM OVC009
      TEMPO 2822/2824 5SM -RA BR OVC007
     FM010300 03006KT 5SM -DZ BR OVC004
     FM010900 05006KT 2SM BR OVC003
      TEMPO 0116/0118 4SM BR OVC004=



000
FTUS44 KFWD 282204 AAB
TAFDFW
TAF AMD
KDFW 282204Z 2822/0124 03005KT 6SM BR SCT008 OVC012
      TEMPO 2822/2823 3SM -FZDZ BR BKN008
     FM010300 06005KT 2SM -DZ BR OVC003
      TEMPO 0111/0114 3SM BR SCT003 OVC006
     FM011800 03006KT 3SM -RA BR OVC004=



000
FTUS44 KFWD 281952 AAA
TAFDFW
TAF AMD
KDFW 281952Z 2820/0124 04007KT P6SM OVC006
      TEMPO 2820/2822 3SM -FZDZ BR OVC007
     FM282200 08008KT 5SM -DZ BR OVC006
      TEMPO 2822/2824 6SM BR OVC006
     FM010000 06005KT 2SM -DZ BR OVC003
      TEMPO 0111/0114 3SM BR SCT003 OVC006
     FM011800 03006KT 3SM -RA BR OVC004=



000
FTUS44 KFWD 281952 AAA
TAFDFW
TAF AMD
KDFW 281952Z 2820/0124 04007KT P6SM OVC006
      TEMPO 2820/2822 3SM -FZDZ BR OVC007
     FM282200 08008KT 5SM -DZ BR OVC006
      TEMPO 2822/2824 6SM BR OVC006
     FM010000 06005KT 2SM -DZ BR OVC003
      TEMPO 0111/0114 3SM BR SCT003 OVC006
     FM011800 03006KT 3SM -RA BR OVC004=



000
FTUS44 KFWD 281920 AAA
TAFACT
TAF AMD
KACT 281920Z 2819/0118 03010KT P6SM BKN008 OVC025
      TEMPO 2819/2821 5SM -RA BR OVC007
     FM010000 03006KT 2SM -DZ BR OVC004
     FM010900 05006KT 2SM BR OVC003
      TEMPO 0116/0118 4SM BR OVC004=



000
FTUS44 KFWD 281723
TAFACT
TAF
KACT 281723Z 2818/0118 03010KT 4SM -FZDZ BR BKN008 OVC013
      TEMPO 2818/2820 2SM -FZDZ BR OVC007
     FM282000 04006KT 6SM -RA BR OVC007
     FM010000 03006KT 2SM -DZ BR OVC004
     FM010900 05006KT 2SM BR OVC003
      TEMPO 0116/0118 4SM BR OVC004=



000
FTUS44 KFWD 281723
TAFDFW
TAF
KDFW 281723Z 2818/0124 04007KT 4SM -FZDZ BR OVC007
      TEMPO 2818/2821 1 1/2SM -FZDZ BR OVC007
     FM282100 08008KT 4SM -RA BR OVC006
     FM010000 06005KT 2SM -DZ BR OVC003
      TEMPO 0111/0114 3SM BR SCT003 OVC006
     FM011800 03006KT 3SM -RA BR OVC004=



000
FTUS44 KFWD 281723
TAFFTW
TAF
KFTW 281723Z 2818/0118 05005KT 4SM -FZDZ BR OVC006
      TEMPO 2818/2821 1 1/2SM -FZDZ BR OVC006
     FM282100 08008KT 4SM -RA BR OVC006
     FM010000 06005KT 2SM -DZ BR OVC003
      TEMPO 0111/0114 3SM BR SCT003 OVC006=



000
FTUS44 KFWD 281652 AAB
TAFFTW
TAF AMD
KFTW 281652Z 2817/0112 05006KT 3SM -FZDZ BR BKN006 OVC010
      TEMPO 2817/2820 1 1/2SM -FZDZ BR OVC006
     FM282100 07008KT 4SM -RA BR OVC006
     FM010000 06005KT 2SM -DZ BR OVC005=



000
FTUS44 KFWD 281652 AAB
TAFFTW
TAF AMD
KFTW 281652Z 2817/0112 05006KT 3SM -FZDZ BR BKN006 OVC010
      TEMPO 2817/2820 1 1/2SM -FZDZ BR OVC006
     FM282100 07008KT 4SM -RA BR OVC006
     FM010000 06005KT 2SM -DZ BR OVC005=



000
FTUS44 KFWD 281648 AAC
TAFDFW
TAF AMD
KDFW 281648Z 2817/0118 04007KT 4SM -FZDZ BR OVC008
      TEMPO 2817/2819 1 1/2SM -FZDZ BR BKN007
     FM282100 08008KT 4SM -RA BR OVC006
     FM010000 06005KT 2SM -DZ BR OVC005=



000
FTUS44 KFWD 281552 AAB
TAFACT
TAF AMD
KACT 281552Z 2816/0112 03010KT 2SM -FZDZ BR BKN008 OVC025
      TEMPO 2817/2818 4SM -FZDZ BR OVC008
     FM281800 05008KT 5SM -FZDZ BR OVC007
     FM282000 04006KT P6SM -RA OVC007
     FM010000 02006KT 2SM BR OVC004=



000
FTUS44 KFWD 281550 AAB
TAFDFW
TAF AMD
KDFW 281550Z 2816/0118 04007KT 1SM -FZDZ BR OVC010
      TEMPO 2816/2818 3SM BR OVC008
     FM282100 08008KT 4SM -RA BR OVC006
     FM010000 06005KT 2SM -DZ BR OVC005=



000
FTUS44 KFWD 281505 AAA
TAFFTW
TAF AMD
KFTW 281505Z 2815/0112 05008KT 3SM -FZDZ BR OVC004
      TEMPO 2815/2817 5SM BR OVC006
     FM282100 08008KT 4SM -RA BR OVC006
     FM010000 06005KT 2SM -DZ BR OVC005=



000
FTUS44 KFWD 281505 AAA
TAFDFW
TAF AMD
KDFW 281505Z 2815/0118 05008KT 4SM -FZDZ BR OVC008
      TEMPO 2815/2817 6SM BR OVC011
     FM282100 08008KT 4SM -RA BR OVC006
     FM010000 06005KT 2SM -DZ BR OVC005=



000
FTUS44 KFWD 281505 AAA
TAFACT
TAF AMD
KACT 281505Z 2815/0112 03010KT 4SM -FZDZ SCT008 OVC025
      TEMPO 2816/2817 3SM -FZDZ BR OVC009
     FM281700 05008KT 5SM -FZDZ BR OVC007
     FM282000 04006KT P6SM -RA OVC007
     FM010000 02006KT 2SM BR OVC004=



000
FTUS44 KFWD 281136
TAFFTW
TAF
KFTW 281136Z 2812/0112 03006KT 3SM BR OVC007
     FM281400 05008KT 3SM BR OVC009
      TEMPO 2814/2818 2SM -FZDZ BR OVC004
     FM282000 08008KT 4SM -RA BR OVC006
     FM010000 06005KT 2SM -DZ BR OVC005=



000
FTUS44 KFWD 281136
TAFACT
TAF
KACT 281136Z 2812/0112 02008KT P6SM SCT015 OVC035
     FM281400 03010KT P6SM SCT008 BKN025
      TEMPO 2814/2817 3SM -FZDZ BR OVC006
     FM281700 05008KT 5SM -DZ BR OVC007
     FM281900 04006KT P6SM -RA OVC007
     FM010000 02006KT 2SM BR OVC004=



000
FTUS44 KFWD 281136
TAFDFW
TAF
KDFW 281136Z 2812/0118 05008KT P6SM OVC009
     FM281400 05008KT 5SM BR OVC009
      TEMPO 2814/2818 3SM -FZDZ BR OVC004
     FM282000 08008KT 4SM -RA BR OVC006
     FM010000 06005KT 2SM -DZ BR OVC005=



000
FTUS44 KFWD 281009 AAB
TAFACT
TAF AMD
KACT 281009Z 2810/0106 02009KT P6SM SCT015 OVC035
      TEMPO 2811/2813 BKN015
     FM281300 03010KT P6SM SCT008 BKN025
      TEMPO 2813/2816 3SM -FZDZ BR OVC006
     FM281700 05008KT 5SM -DZ BR OVC007
     FM281900 04006KT P6SM -RA OVC007
     FM010000 02006KT 2SM BR OVC004=



000
FTUS44 KFWD 280911 AAA
TAFFTW
TAF AMD
KFTW 280911Z 2809/0106 04008KT 5SM -FZDZ BKN009 OVC015
      TEMPO 2809/2812 2SM -FZDZ BR OVC008
     FM281200 05008KT 5SM -FZDZ OVC008
      TEMPO 2812/2816 2SM -FZDZ BR OVC004
     FM281900 08008KT 4SM -RA BR OVC007
     FM010000 06005KT 2SM -DZ BR OVC005=



000
FTUS44 KFWD 280911 AAB
TAFDFW
TAF AMD
KDFW 280911Z 2809/0112 04008KT 6SM BR SCT009 BKN012 OVC025
      TEMPO 2809/2812 5SM -FZDZ BR BKN009
     FM281200 05008KT 5SM -FZDZ OVC008
      TEMPO 2812/2816 2SM -FZDZ BR OVC004
     FM281900 08008KT 4SM -RA BR OVC007
     FM010000 06005KT 2SM -DZ BR OVC005=



000
FTUS44 KFWD 280911 AAA
TAFACT
TAF AMD
KACT 280911Z 2809/0106 02009KT P6SM -FZDZ SCT015 OVC030
     FM281100 03010KT 3SM -FZDZ BR OVC008
      TEMPO 2811/2815 1SM -FZDZ BR OVC004
     FM281700 05008KT 5SM -DZ BR OVC007
     FM281900 04006KT P6SM -RA OVC007
     FM010000 02006KT 2SM BR OVC004=



000
FTUS44 KFWD 280738 AAA
TAFDFW
TAF AMD
KDFW 280738Z 2808/0112 04008KT 6SM -FZRAPL BR SCT009 BKN015 OVC030
      TEMPO 2808/2810 5SM -FZRAPL BKN009
     FM281000 06008KT 5SM -FZDZ OVC008
      TEMPO 2812/2816 2SM -FZDZ BR OVC004
     FM281900 08008KT 4SM -RA BR OVC007
     FM010000 06005KT 2SM -DZ BR OVC005=



000
FTUS44 KFWD 280521
TAFACT
TAF
KACT 280521Z 2806/0106 02009KT P6SM -FZDZ SCT015 OVC030
     FM281000 03010KT 3SM -FZDZ BR OVC008
      TEMPO 2811/2815 1SM -FZDZ BR OVC004
     FM281700 05008KT 5SM -DZ BR OVC007
     FM281900 04006KT P6SM -RA OVC007
     FM010000 02006KT 2SM BR OVC004=



000
FTUS44 KFWD 280521
TAFFTW
TAF
KFTW 280521Z 2806/0106 04008KT 5SM -FZRASN BR SCT009 BKN015 OVC040
     FM280800 06008KT 4SM -FZDZ OVC008
      TEMPO 2812/2816 2SM -FZDZ BR OVC004
     FM281900 09007KT 5SM -RA BR OVC007
     FM010000 06005KT 2SM -DZ BR OVC005=



000
FTUS44 KFWD 280521
TAFDFW
TAF
KDFW 280521Z 2806/0112 04008KT 5SM -FZRASN BR SCT009 BKN015 OVC040
     FM280800 06008KT 5SM -FZDZ OVC008
      TEMPO 2812/2816 2SM -FZDZ BR OVC004
     FM281900 08008KT 4SM -RA BR OVC007
     FM010000 06005KT 2SM -DZ BR OVC005=



000
FTUS44 KFWD 280521
TAFDFW
TAF
KDFW 280521Z 2806/0112 04008KT 5SM -FZRASN BR SCT009 BKN015 OVC040
     FM280800 06008KT 5SM -FZDZ OVC008
      TEMPO 2812/2816 2SM -FZDZ BR OVC004
     FM281900 08008KT 4SM -RA BR OVC007
     FM010000 06005KT 2SM -DZ BR OVC005=



000
FTUS44 KFWD 280521
TAFFTW
TAF
KFTW 280521Z 2806/0106 04008KT 5SM -FZRASN BR SCT009 BKN015 OVC040
     FM280800 06008KT 4SM -FZDZ OVC008
      TEMPO 2812/2816 2SM -FZDZ BR OVC004
     FM281900 09007KT 5SM -RA BR OVC007
     FM010000 06005KT 2SM -DZ BR OVC005=



000
FTUS44 KFWD 280521
TAFACT
TAF
KACT 280521Z 2806/0106 02009KT P6SM -FZDZ SCT015 OVC030
     FM281000 03010KT 3SM -FZDZ BR OVC008
      TEMPO 2811/2815 1SM -FZDZ BR OVC004
     FM281700 05008KT 5SM -DZ BR OVC007
     FM281900 04006KT P6SM -RA OVC007
     FM010000 02006KT 2SM BR OVC004=



000
FTUS44 KFWD 280308 AAB
TAFFTW
TAF AMD
KFTW 280308Z 2803/2824 05008KT 4SM -SN BR FEW008 SCT018 OVC050
      TEMPO 2803/2806 2SM -SN BR BKN012
     FM280600 06008KT 4SM -FZDZSN BR OVC008
     FM280900 07007KT 3SM -FZDZ OVC007
      TEMPO 2811/2815 3/4SM BR OVC004
     FM282000 02007KT 3SM -DZ BR OVC006=



000
FTUS44 KFWD 280308 AAB
TAFDFW
TAF AMD
KDFW 280308Z 2803/0106 05008KT 4SM -SN BR FEW008 SCT018 OVC050
      TEMPO 2803/2806 2SM -SN BR BKN012
     FM280600 06008KT 4SM -FZDZSN BR OVC008
     FM280900 07007KT 3SM -FZDZ OVC007
      TEMPO 2811/2815 3/4SM BR OVC004
     FM282000 02007KT 3SM -DZ BR OVC006=



000
FTUS44 KFWD 280308 AAC
TAFACT
TAF AMD
KACT 280308Z 2803/2824 03008KT 6SM -FZRA BR SCT020 OVC030
      TEMPO 2803/2806 5SM -FZRA BKN015
     FM280800 05010KT 4SM -FZDZ BR OVC008
      TEMPO 2811/2815 1SM -FZDZ BR OVC004
     FM281600 07008KT 5SM -DZ BR BKN007 OVC012
     FM282000 05006KT P6SM -RA OVC012=



000
FTUS44 KFWD 280308 AAB
TAFFTW
TAF AMD
KFTW 280308Z 2803/2824 05008KT 4SM -SN BR FEW008 SCT018 OVC050
      TEMPO 2803/2806 2SM -SN BR BKN012
     FM280600 06008KT 4SM -FZDZSN BR OVC008
     FM280900 07007KT 3SM -FZDZ OVC007
      TEMPO 2811/2815 3/4SM BR OVC004
     FM282000 02007KT 3SM -DZ BR OVC006=



000
FTUS44 KFWD 280308 AAC
TAFACT
TAF AMD
KACT 280308Z 2803/2824 03008KT 6SM -FZRA BR SCT020 OVC030
      TEMPO 2803/2806 5SM -FZRA BKN015
     FM280800 05010KT 4SM -FZDZ BR OVC008
      TEMPO 2811/2815 1SM -FZDZ BR OVC004
     FM281600 07008KT 5SM -DZ BR BKN007 OVC012
     FM282000 05006KT P6SM -RA OVC012=



000
FTUS44 KFWD 280308 AAB
TAFDFW
TAF AMD
KDFW 280308Z 2803/0106 05008KT 4SM -SN BR FEW008 SCT018 OVC050
      TEMPO 2803/2806 2SM -SN BR BKN012
     FM280600 06008KT 4SM -FZDZSN BR OVC008
     FM280900 07007KT 3SM -FZDZ OVC007
      TEMPO 2811/2815 3/4SM BR OVC004
     FM282000 02007KT 3SM -DZ BR OVC006=



000
FTUS44 KFWD 280148 AAB
TAFACT
TAF AMD
KACT 280148Z 2802/2824 03012KT 4SM -FZRA BR BKN008 OVC015
     FM280400 04010KT 4SM -FZDZ BR OVC008
      TEMPO 2811/2815 1SM -FZDZ BR OVC004
     FM281600 07008KT 5SM -DZ BR BKN007 OVC012
     FM282000 05006KT P6SM -RA OVC012=



000
FTUS44 KFWD 280148 AAB
TAFACT
TAF AMD
KACT 280148Z 2802/2824 03012KT 4SM -FZRA BR BKN008 OVC015
     FM280400 04010KT 4SM -FZDZ BR OVC008
      TEMPO 2811/2815 1SM -FZDZ BR OVC004
     FM281600 07008KT 5SM -DZ BR BKN007 OVC012
     FM282000 05006KT P6SM -RA OVC012=



000
FTUS44 KFWD 280148 CCA
TAFACT
TAF COR
KACT 280148Z 2802/2824 03012KT 4SM -FZRA BR BKN008 OVC015
     FM280400 04010KT 2SM -FZDZ BR OVC008
      TEMPO 2811/2815 1SM -FZDZ BR OVC004
     FM281600 07008KT 5SM -DZ BR BKN007 OVC012
     FM282000 05006KT P6SM -RA OVC012=



000
FTUS44 KFWD 280148 CCA
TAFACT
TAF COR
KACT 280148Z 2802/2824 03012KT 4SM -FZRA BR BKN008 OVC015
     FM280400 04010KT 2SM -FZDZ BR OVC008
      TEMPO 2811/2815 1SM -FZDZ BR OVC004
     FM281600 07008KT 5SM -DZ BR BKN007 OVC012
     FM282000 05006KT P6SM -RA OVC012=



000
FTUS44 KFWD 280112 AAA
TAFDFW
TAF AMD
KDFW 280112Z 2801/0106 08009KT 6SM -FZDZSN BR FEW009 OVC015
      TEMPO 2801/2803 3SM -SN BR BKN010
     FM280500 05009KT 2SM -FZDZ BR OVC008
      TEMPO 2811/2815 3/4SM BR OVC004
     FM282000 02007KT 3SM -DZ BR OVC006=



000
FTUS44 KFWD 280112 AAA
TAFFTW
TAF AMD
KFTW 280112Z 2801/2824 08009KT 6SM -FZDZSN BR FEW009 OVC015
      TEMPO 2801/2803 3SM -SN BR BKN010
     FM280500 05009KT 2SM -FZDZ BR OVC008
      TEMPO 2811/2815 3/4SM BR OVC004
     FM282000 02007KT 3SM -DZ BR OVC006=



000
FTUS44 KFWD 280112 AAA
TAFACT
TAF AMD
KACT 280112Z 2801/2824 03012KT 3SM -FZRA BR BKN008 OVC015
     FM280400 04010KT 3SM -FZDZ BR OVC008
      TEMPO 2811/2815 1SM -FZDZ BR OVC004
     FM281600 07008KT 5SM -DZ BR BKN007 OVC012
     FM282000 05006KT P6SM -RA OVC012=



000
FTUS44 KFWD 280112 AAA
TAFDFW
TAF AMD
KDFW 280112Z 2801/0106 08009KT 6SM -FZDZSN BR FEW009 OVC015
      TEMPO 2801/2803 3SM -SN BR BKN010
     FM280500 05009KT 2SM -FZDZ BR OVC008
      TEMPO 2811/2815 3/4SM BR OVC004
     FM282000 02007KT 3SM -DZ BR OVC006=



000
FTUS44 KFWD 280112 AAA
TAFFTW
TAF AMD
KFTW 280112Z 2801/2824 08009KT 6SM -FZDZSN BR FEW009 OVC015
      TEMPO 2801/2803 3SM -SN BR BKN010
     FM280500 05009KT 2SM -FZDZ BR OVC008
      TEMPO 2811/2815 3/4SM BR OVC004
     FM282000 02007KT 3SM -DZ BR OVC006=



000
FTUS44 KFWD 280112 AAA
TAFACT
TAF AMD
KACT 280112Z 2801/2824 03012KT 3SM -FZRA BR BKN008 OVC015
     FM280400 04010KT 3SM -FZDZ BR OVC008
      TEMPO 2811/2815 1SM -FZDZ BR OVC004
     FM281600 07008KT 5SM -DZ BR BKN007 OVC012
     FM282000 05006KT P6SM -RA OVC012=



000
FTUS44 KFWD 272341
TAFDFW
TAF
KDFW 272341Z 2800/0106 04012KT 1SM -SN BR BKN007 BKN015
      TEMPO 2800/2803 3SM -SN BR SCT008 BKN020 OVC050
     FM280800 06009KT 2SM -FZDZ BR OVC008
      TEMPO 2811/2815 3/4SM BR OVC004
     FM282000 03008KT 3SM -DZ BR OVC006=



000
FTUS44 KFWD 272341
TAFFTW
TAF
KFTW 272341Z 2800/2824 04012KT 1SM -SN BR BKN007 BKN015
      TEMPO 2800/2803 3SM -SN BR SCT008 BKN020 OVC050
     FM280800 06009KT 2SM -FZDZ BR OVC008
      TEMPO 2811/2815 3/4SM BR OVC004
     FM282000 03008KT 3SM -DZ BR OVC006=



000
FTUS44 KFWD 272341
TAFACT
TAF
KACT 272341Z 2800/2824 02011KT 5SM -FZDZ BR FEW010 BKN015 OVC025
      TEMPO 2801/2804 3SM -FZDZ BR BKN008
     FM280400 04010KT 3SM -FZDZ BR OVC008
      TEMPO 2811/2815 1SM -FZDZ BR OVC004
     FM281600 07008KT 5SM -DZ BR BKN007 OVC012
     FM282000 05006KT P6SM -RA OVC012=



000
FTUS44 KFWD 272341
TAFACT
TAF
KACT 272341Z 2800/2824 02011KT 5SM -FZDZ BR FEW010 BKN015 OVC025
      TEMPO 2801/2804 3SM -FZDZ BR BKN008
     FM280400 04010KT 3SM -FZDZ BR OVC008
      TEMPO 2811/2815 1SM -FZDZ BR OVC004
     FM281600 07008KT 5SM -DZ BR BKN007 OVC012
     FM282000 05006KT P6SM -RA OVC012=



000
FTUS44 KFWD 272341
TAFDFW
TAF
KDFW 272341Z 2800/0106 04012KT 1SM -SN BR BKN007 BKN015
      TEMPO 2800/2803 3SM -SN BR SCT008 BKN020 OVC050
     FM280800 06009KT 2SM -FZDZ BR OVC008
      TEMPO 2811/2815 3/4SM BR OVC004
     FM282000 03008KT 3SM -DZ BR OVC006=



000
FTUS44 KFWD 272341
TAFFTW
TAF
KFTW 272341Z 2800/2824 04012KT 1SM -SN BR BKN007 BKN015
      TEMPO 2800/2803 3SM -SN BR SCT008 BKN020 OVC050
     FM280800 06009KT 2SM -FZDZ BR OVC008
      TEMPO 2811/2815 3/4SM BR OVC004
     FM282000 03008KT 3SM -DZ BR OVC006=



000
FTUS44 KFWD 272111 AAB
TAFFTW
TAF AMD
KFTW 272111Z 2721/2818 01007KT 1SM -SN FEW015 BKN018 OVC030
      TEMPO 2721/2723 1/4SM SN FZFG VV007
     FM272300 05010KT 3SM -SN OVC015
     FM280500 07010KT 3SM -FZDZSN BR OVC010
     FM280800 07008KT 2SM -FZDZ BR OVC007=



000
FTUS44 KFWD 272111 AAA
TAFACT
TAF AMD
KACT 272111Z 2721/2818 04011KT P6SM OVC017
      TEMPO 2721/2723 5SM -SN
     FM280300 04008KT 2SM -FZDZ BR OVC013
     FM281600 07008KT 5SM -RA BR BKN007 OVC012=



000
FTUS44 KFWD 272111 AAB
TAFFTW
TAF AMD
KFTW 272111Z 2721/2818 01007KT 1SM -SN FEW015 BKN018 OVC030
      TEMPO 2721/2723 1/4SM SN FZFG VV007
     FM272300 05010KT 3SM -SN OVC015
     FM280500 07010KT 3SM -FZDZSN BR OVC010
     FM280800 07008KT 2SM -FZDZ BR OVC007=



000
FTUS44 KFWD 272111 AAB
TAFDFW
TAF AMD
KDFW 272111Z 2721/2824 05009KT 1SM -SN SCT007 OVC013
      TEMPO 2721/2723 1/2SM SN FZFG
     FM272300 05010KT 3SM -SN OVC015
     FM280400 07010KT 3SM -FZDZSN BR OVC010
     FM280700 07008KT 2SM -FZDZ BR OVC007
     FM282100 09008KT 3SM -RA BR OVC004=



000
FTUS44 KFWD 272111 AAB
TAFDFW
TAF AMD
KDFW 272111Z 2721/2824 05009KT 1SM -SN SCT007 OVC013
      TEMPO 2721/2723 1/2SM SN FZFG
     FM272300 05010KT 3SM -SN OVC015
     FM280400 07010KT 3SM -FZDZSN BR OVC010
     FM280700 07008KT 2SM -FZDZ BR OVC007
     FM282100 09008KT 3SM -RA BR OVC004=



000
FTUS44 KFWD 272111 AAA
TAFACT
TAF AMD
KACT 272111Z 2721/2818 04011KT P6SM OVC017
      TEMPO 2721/2723 5SM -SN
     FM280300 04008KT 2SM -FZDZ BR OVC013
     FM281600 07008KT 5SM -RA BR BKN007 OVC012=



000
FTUS44 KFWD 271925 AAA
TAFFTW
TAF AMD
KFTW 271925Z 2719/2818 05011KT 1SM -SN FEW015 BKN018 OVC030
      TEMPO 2719/2720 1/4SM SN FZFG FEW006 OVC013
     FM272000 05010KT 3SM -SN OVC015
     FM280500 07010KT 3SM -FZDZSN BR OVC010
     FM280800 07008KT 2SM -FZDZ BR OVC007=



000
FTUS44 KFWD 271925 AAA
TAFFTW
TAF AMD
KFTW 271925Z 2719/2818 05011KT 1SM -SN FEW015 BKN018 OVC030
      TEMPO 2719/2720 1/4SM SN FZFG FEW006 OVC013
     FM272000 05010KT 3SM -SN OVC015
     FM280500 07010KT 3SM -FZDZSN BR OVC010
     FM280800 07008KT 2SM -FZDZ BR OVC007=



000
FTUS44 KFWD 271855 AAA
TAFDFW
TAF AMD
KDFW 271855Z 2719/2824 05011KT 1SM -SN FEW015 BKN018 OVC030
      TEMPO 2719/2720 1/2SM SN FZFG FEW006 OVC013
     FM272000 05010KT 3SM -SN OVC015
     FM280400 07010KT 3SM -FZDZSN BR OVC010
     FM280700 07008KT 2SM -FZDZ BR OVC007
     FM282100 09008KT 3SM -RA BR OVC004=



000
FTUS44 KFWD 271855 AAA
TAFDFW
TAF AMD
KDFW 271855Z 2719/2824 05011KT 1SM -SN FEW015 BKN018 OVC030
      TEMPO 2719/2720 1/2SM SN FZFG FEW006 OVC013
     FM272000 05010KT 3SM -SN OVC015
     FM280400 07010KT 3SM -FZDZSN BR OVC010
     FM280700 07008KT 2SM -FZDZ BR OVC007
     FM282100 09008KT 3SM -RA BR OVC004=



000
FTUS44 KFWD 271740
TAFFTW
TAF
KFTW 271740Z 2718/2818 05011KT 1SM -SN FEW015 BKN018 OVC030
      TEMPO 2718/2719 1/2SM SN FZFG FEW006 OVC013
     FM272000 05010KT 3SM -SN OVC015
     FM280500 07010KT 3SM -FZDZSN BR OVC010
     FM280800 07008KT 2SM -FZDZ BR OVC007=



000
FTUS44 KFWD 271740
TAFACT
TAF
KACT 271740Z 2718/2818 04011KT P6SM OVC022
      TEMPO 2719/2721 3SM -SN BKN015
     FM280300 04008KT 2SM -FZDZ BR OVC013
     FM281600 07008KT 5SM -RA BR BKN007 OVC012=



000
FTUS44 KFWD 271740
TAFDFW
TAF
KDFW 271740Z 2718/2824 05011KT 1SM -SN FEW015 BKN018 OVC030
      TEMPO 2718/2719 1/2SM SN FZFG FEW006 OVC013
     FM272000 05010KT 3SM -SN OVC015
     FM280400 07010KT 3SM -FZDZSN BR OVC010
     FM280700 07008KT 2SM -FZDZ BR OVC007
     FM281900 09008KT 3SM -RA BR OVC004=



000
FTUS44 KFWD 271740
TAFACT
TAF
KACT 271740Z 2718/2818 04011KT P6SM OVC022
      TEMPO 2719/2721 3SM -SN BKN015
     FM280300 04008KT 2SM -FZDZ BR OVC013
     FM281600 07008KT 5SM -RA BR BKN007 OVC012=



000
FTUS44 KFWD 271740
TAFFTW
TAF
KFTW 271740Z 2718/2818 05011KT 1SM -SN FEW015 BKN018 OVC030
      TEMPO 2718/2719 1/2SM SN FZFG FEW006 OVC013
     FM272000 05010KT 3SM -SN OVC015
     FM280500 07010KT 3SM -FZDZSN BR OVC010
     FM280800 07008KT 2SM -FZDZ BR OVC007=



000
FTUS44 KFWD 271740
TAFDFW
TAF
KDFW 271740Z 2718/2824 05011KT 1SM -SN FEW015 BKN018 OVC030
      TEMPO 2718/2719 1/2SM SN FZFG FEW006 OVC013
     FM272000 05010KT 3SM -SN OVC015
     FM280400 07010KT 3SM -FZDZSN BR OVC010
     FM280700 07008KT 2SM -FZDZ BR OVC007
     FM281900 09008KT 3SM -RA BR OVC004=



000
FTUS44 KFWD 271600 AAC
TAFDFW
TAF AMD
KDFW 271600Z 2716/2818 05011KT 1/2SM SN VV012
      TEMPO 2718/2719 3SM -SN BR BKN020 OVC040
     FM271900 05010KT 3SM -SN OVC018
     FM280300 07010KT 2SM -FZDZSN BR OVC010
     FM280800 17008KT 2SM -FZDZ BR OVC007=



000
FTUS44 KFWD 271600 AAC
TAFDFW
TAF AMD
KDFW 271600Z 2716/2818 05011KT 1/2SM SN VV012
      TEMPO 2718/2719 3SM -SN BR BKN020 OVC040
     FM271900 05010KT 3SM -SN OVC018
     FM280300 07010KT 2SM -FZDZSN BR OVC010
     FM280800 17008KT 2SM -FZDZ BR OVC007=



000
FTUS44 KFWD 271600 AAD
TAFFTW
TAF AMD
KFTW 271600Z 2716/2812 05011KT 1/2SM SN VV012
      TEMPO 2718/2719 3SM -SN BR BKN020 OVC040
     FM271900 05010KT 3SM -SN OVC018
     FM280300 07010KT 2SM -FZDZSN BR OVC010
     FM280800 17008KT 2SM -FZDZ BR OVC007=



000
FTUS44 KFWD 271600 AAD
TAFFTW
TAF AMD
KFTW 271600Z 2716/2812 05011KT 1/2SM SN VV012
      TEMPO 2718/2719 3SM -SN BR BKN020 OVC040
     FM271900 05010KT 3SM -SN OVC018
     FM280300 07010KT 2SM -FZDZSN BR OVC010
     FM280800 17008KT 2SM -FZDZ BR OVC007=



000
FTUS44 KFWD 271526 AAB
TAFDFW
TAF AMD
KDFW 271526Z 2715/2818 05011KT 3SM -SN BR BKN020 OVC040
      TEMPO 2715/2718 1/2SM SN VV012
     FM280300 07010KT 2SM -FZDZSN BR OVC010
     FM280800 17008KT 2SM -FZDZ BR OVC007=



000
FTUS44 KFWD 271526 CCA
TAFFTW
TAF COR
KFTW 271526Z 2715/2812 05010KT 2SM -SN BR BKN020 OVC030
      TEMPO 2715/2718 1/2SM SN VV013
     FM280300 07010KT 2SM -FZDZSN BR OVC010
     FM280800 17008KT 2SM -FZDZ BR OVC007=



000
FTUS44 KFWD 271526 CCA
TAFFTW
TAF COR
KFTW 271526Z 2715/2812 05010KT 2SM -SN BR BKN020 OVC030
      TEMPO 2715/2718 1/2SM SN VV013
     FM280300 07010KT 2SM -FZDZSN BR OVC010
     FM280800 17008KT 2SM -FZDZ BR OVC007=



000
FTUS44 KFWD 271525 AAC
TAFFTW
TAF AMD
KFTW 271525Z 2715/2812 05010KT 2SM -SN BR BKN020 OVC030
      TEMPO 2715/2718 1/2SM SN BKN016
     FM280300 07010KT 2SM -FZDZSN BR OVC010
     FM280800 17008KT 2SM -FZDZ BR OVC007=



    US Dept of Commerce
    National Oceanic and Atmospheric Administration
    National Weather Service
    1325 East West Highway
    Silver Spring, MD 20910
    Page Author: NWS Internet Services Team
Disclaimer
Information Quality
Credits
Glossary
Privacy Policy
Freedom of Information Act (FOIA)
About Us
Career Opportunities